sensor_id;sensor_type;location;lat;lon;timestamp;temperature;humidity
23377;DHT22;14353;46.070;13.222;2022-08-01T00:00:36;33.00;37.80
23377;DHT22;14353;46.070;13.222;2022-08-01T00:03:02;33.00;37.80
23377;DHT22;14353;46.070;13.222;2022-08-01T00:05:27;33.00;37.80
23377;DHT22;14353;46.070;13.222;2022-08-01T00:07:53;33.10;37.80
23377;DHT22;14353;46.070;13.222;2022-08-01T00:10:20;33.00;37.80
23377;DHT22;14353;46.070;13.222;2022-08-01T00:12:46;33.00;37.90
23377;DHT22;14353;46.070;13.222;2022-08-01T00:15:14;33.00;37.90
23377;DHT22;14353;46.070;13.222;2022-08-01T00:17:41;33.00;37.90
23377;DHT22;14353;46.070;13.222;2022-08-01T00:20:10;33.00;37.90
23377;DHT22;14353;46.070;13.222;2022-08-01T00:22:36;33.00;37.90
23377;DHT22;14353;46.070;13.222;2022-08-01T00:25:03;33.00;37.90
23377;DHT22;14353;46.070;13.222;2022-08-01T00:27:32;33.00;37.90
23377;DHT22;14353;46.070;13.222;2022-08-01T00:29:58;33.00;37.90
23377;DHT22;14353;46.070;13.222;2022-08-01T00:32:25;33.00;37.90
23377;DHT22;14353;46.070;13.222;2022-08-01T00:34:55;33.00;37.90
23377;DHT22;14353;46.070;13.222;2022-08-01T00:37:21;33.00;37.90
23377;DHT22;14353;46.070;13.222;2022-08-01T00:39:47;33.00;38.00
23377;DHT22;14353;46.070;13.222;2022-08-01T00:42:13;33.00;38.00
23377;DHT22;14353;46.070;13.222;2022-08-01T00:44:39;33.00;38.00
23377;DHT22;14353;46.070;13.222;2022-08-01T00:47:06;32.90;38.00
23377;DHT22;14353;46.070;13.222;2022-08-01T00:49:32;32.90;37.90
23377;DHT22;14353;46.070;13.222;2022-08-01T00:51:59;32.90;38.00
23377;DHT22;14353;46.070;13.222;2022-08-01T00:54:25;32.90;38.00
23377;DHT22;14353;46.070;13.222;2022-08-01T00:56:53;32.90;38.10
23377;DHT22;14353;46.070;13.222;2022-08-01T00:59:21;32.90;38.00
23377;DHT22;14353;46.070;13.222;2022-08-01T01:01:50;32.90;38.00
23377;DHT22;14353;46.070;13.222;2022-08-01T01:04:17;32.90;38.10
23377;DHT22;14353;46.070;13.222;2022-08-01T01:07:06;32.90;38.10
23377;DHT22;14353;46.070;13.222;2022-08-01T01:10:00;32.90;38.10
23377;DHT22;14353;46.070;13.222;2022-08-01T01:12:31;32.90;38.10
23377;DHT22;14353;46.070;13.222;2022-08-01T01:15:07;32.90;38.10
23377;DHT22;14353;46.070;13.222;2022-08-01T01:17:54;32.90;38.10
23377;DHT22;14353;46.070;13.222;2022-08-01T01:20:26;32.80;38.10
23377;DHT22;14353;46.070;13.222;2022-08-01T01:30:44;32.80;38.10
23377;DHT22;14353;46.070;13.222;2022-08-01T01:33:11;32.80;38.20
23377;DHT22;14353;46.070;13.222;2022-08-01T01:35:46;32.80;38.20
23377;DHT22;14353;46.070;13.222;2022-08-01T01:38:25;32.80;38.20
23377;DHT22;14353;46.070;13.222;2022-08-01T01:40:54;32.80;38.20
23377;DHT22;14353;46.070;13.222;2022-08-01T01:43:22;32.80;38.20
23377;DHT22;14353;46.070;13.222;2022-08-01T01:45:51;32.80;38.20
23377;DHT22;14353;46.070;13.222;2022-08-01T01:48:19;32.80;38.30
23377;DHT22;14353;46.070;13.222;2022-08-01T01:50:47;32.80;38.30
23377;DHT22;14353;46.070;13.222;2022-08-01T01:53:15;32.80;38.30
23377;DHT22;14353;46.070;13.222;2022-08-01T01:55:44;32.80;38.30
23377;DHT22;14353;46.070;13.222;2022-08-01T01:58:13;32.80;38.30
23377;DHT22;14353;46.070;13.222;2022-08-01T02:00:43;32.80;38.30
23377;DHT22;14353;46.070;13.222;2022-08-01T02:03:12;32.80;38.30
23377;DHT22;14353;46.070;13.222;2022-08-01T02:05:38;32.70;38.30
23377;DHT22;14353;46.070;13.222;2022-08-01T02:08:06;32.70;38.30
23377;DHT22;14353;46.070;13.222;2022-08-01T02:10:34;32.70;38.30
23377;DHT22;14353;46.070;13.222;2022-08-01T02:13:03;32.70;38.30
23377;DHT22;14353;46.070;13.222;2022-08-01T02:15:30;32.70;38.30
23377;DHT22;14353;46.070;13.222;2022-08-01T02:17:57;32.70;38.40
23377;DHT22;14353;46.070;13.222;2022-08-01T02:20:26;32.70;38.40
23377;DHT22;14353;46.070;13.222;2022-08-01T02:22:57;32.70;38.40
23377;DHT22;14353;46.070;13.222;2022-08-01T02:25:29;32.70;38.40
23377;DHT22;14353;46.070;13.222;2022-08-01T02:30:47;32.70;38.40
23377;DHT22;14353;46.070;13.222;2022-08-01T02:33:38;32.70;38.40
23377;DHT22;14353;46.070;13.222;2022-08-01T02:36:05;32.70;38.40
23377;DHT22;14353;46.070;13.222;2022-08-01T02:38:35;32.70;38.50
23377;DHT22;14353;46.070;13.222;2022-08-01T02:41:07;32.70;38.50
23377;DHT22;14353;46.070;13.222;2022-08-01T02:43:36;32.70;38.50
23377;DHT22;14353;46.070;13.222;2022-08-01T02:46:04;32.70;38.50
23377;DHT22;14353;46.070;13.222;2022-08-01T02:48:34;32.70;38.50
23377;DHT22;14353;46.070;13.222;2022-08-01T02:51:02;32.70;38.50
23377;DHT22;14353;46.070;13.222;2022-08-01T02:53:34;32.70;38.50
23377;DHT22;14353;46.070;13.222;2022-08-01T02:56:04;32.70;38.50
23377;DHT22;14353;46.070;13.222;2022-08-01T02:58:31;32.70;38.50
23377;DHT22;14353;46.070;13.222;2022-08-01T03:00:59;32.70;38.50
23377;DHT22;14353;46.070;13.222;2022-08-01T03:03:25;32.60;38.50
23377;DHT22;14353;46.070;13.222;2022-08-01T03:05:52;32.60;38.50
23377;DHT22;14353;46.070;13.222;2022-08-01T03:08:20;32.60;38.50
23377;DHT22;14353;46.070;13.222;2022-08-01T03:10:48;32.60;38.50
23377;DHT22;14353;46.070;13.222;2022-08-01T03:13:16;32.60;38.50
23377;DHT22;14353;46.070;13.222;2022-08-01T03:15:43;32.60;38.50
23377;DHT22;14353;46.070;13.222;2022-08-01T03:18:10;32.60;38.60
23377;DHT22;14353;46.070;13.222;2022-08-01T03:20:37;32.60;38.50
23377;DHT22;14353;46.070;13.222;2022-08-01T03:23:07;32.60;38.50
23377;DHT22;14353;46.070;13.222;2022-08-01T03:25:38;32.60;38.60
23377;DHT22;14353;46.070;13.222;2022-08-01T03:28:06;32.60;38.50
23377;DHT22;14353;46.070;13.222;2022-08-01T03:30:36;32.60;38.60
23377;DHT22;14353;46.070;13.222;2022-08-01T03:33:03;32.60;38.60
23377;DHT22;14353;46.070;13.222;2022-08-01T03:35:34;32.60;38.60
23377;DHT22;14353;46.070;13.222;2022-08-01T03:38:02;32.60;38.60
23377;DHT22;14353;46.070;13.222;2022-08-01T03:40:37;32.60;38.60
23377;DHT22;14353;46.070;13.222;2022-08-01T03:43:07;32.60;38.60
23377;DHT22;14353;46.070;13.222;2022-08-01T03:45:38;32.60;38.60
23377;DHT22;14353;46.070;13.222;2022-08-01T03:48:16;32.60;38.60
23377;DHT22;14353;46.070;13.222;2022-08-01T03:50:48;32.60;38.60
23377;DHT22;14353;46.070;13.222;2022-08-01T03:53:16;32.60;38.60
23377;DHT22;14353;46.070;13.222;2022-08-01T03:55:45;32.60;38.60
23377;DHT22;14353;46.070;13.222;2022-08-01T03:58:11;32.60;38.60
23377;DHT22;14353;46.070;13.222;2022-08-01T04:00:39;32.60;38.60
23377;DHT22;14353;46.070;13.222;2022-08-01T04:03:09;32.60;38.70
23377;DHT22;14353;46.070;13.222;2022-08-01T04:05:35;32.60;38.70
23377;DHT22;14353;46.070;13.222;2022-08-01T04:08:01;32.60;38.70
23377;DHT22;14353;46.070;13.222;2022-08-01T04:10:29;32.60;38.70
23377;DHT22;14353;46.070;13.222;2022-08-01T04:12:55;32.60;38.70
23377;DHT22;14353;46.070;13.222;2022-08-01T04:15:21;32.60;38.70
23377;DHT22;14353;46.070;13.222;2022-08-01T04:17:49;32.50;38.60
23377;DHT22;14353;46.070;13.222;2022-08-01T04:20:15;32.60;38.70
23377;DHT22;14353;46.070;13.222;2022-08-01T04:22:44;32.60;38.70
23377;DHT22;14353;46.070;13.222;2022-08-01T04:25:17;32.60;38.70
23377;DHT22;14353;46.070;13.222;2022-08-01T04:27:48;32.50;38.60
23377;DHT22;14353;46.070;13.222;2022-08-01T04:30:16;32.50;38.60
23377;DHT22;14353;46.070;13.222;2022-08-01T04:32:44;32.60;38.70
23377;DHT22;14353;46.070;13.222;2022-08-01T04:35:12;32.50;38.50
23377;DHT22;14353;46.070;13.222;2022-08-01T04:37:44;32.60;38.60
23377;DHT22;14353;46.070;13.222;2022-08-01T04:40:11;32.60;38.70
23377;DHT22;14353;46.070;13.222;2022-08-01T04:42:38;32.60;38.70
23377;DHT22;14353;46.070;13.222;2022-08-01T04:45:04;32.60;38.70
23377;DHT22;14353;46.070;13.222;2022-08-01T04:47:30;32.50;38.50
23377;DHT22;14353;46.070;13.222;2022-08-01T04:49:57;32.60;38.60
23377;DHT22;14353;46.070;13.222;2022-08-01T04:52:23;32.60;38.60
23377;DHT22;14353;46.070;13.222;2022-08-01T04:54:57;32.60;38.60
23377;DHT22;14353;46.070;13.222;2022-08-01T04:57:23;32.60;38.60
23377;DHT22;14353;46.070;13.222;2022-08-01T04:59:49;32.60;38.60
23377;DHT22;14353;46.070;13.222;2022-08-01T05:02:22;32.60;38.60
23377;DHT22;14353;46.070;13.222;2022-08-01T05:04:49;32.60;38.60
23377;DHT22;14353;46.070;13.222;2022-08-01T05:07:15;32.60;38.60
23377;DHT22;14353;46.070;13.222;2022-08-01T05:09:42;32.60;38.60
23377;DHT22;14353;46.070;13.222;2022-08-01T05:12:08;32.60;38.60
23377;DHT22;14353;46.070;13.222;2022-08-01T05:14:34;32.60;38.50
23377;DHT22;14353;46.070;13.222;2022-08-01T05:17:02;32.60;38.50
23377;DHT22;14353;46.070;13.222;2022-08-01T05:19:39;32.60;38.50
23377;DHT22;14353;46.070;13.222;2022-08-01T05:22:07;32.60;38.50
23377;DHT22;14353;46.070;13.222;2022-08-01T05:24:35;32.60;38.50
23377;DHT22;14353;46.070;13.222;2022-08-01T05:27:03;32.60;38.50
23377;DHT22;14353;46.070;13.222;2022-08-01T05:29:29;32.60;38.40
23377;DHT22;14353;46.070;13.222;2022-08-01T05:31:55;32.60;38.50
23377;DHT22;14353;46.070;13.222;2022-08-01T05:34:22;32.60;38.40
23377;DHT22;14353;46.070;13.222;2022-08-01T05:36:48;32.60;38.40
23377;DHT22;14353;46.070;13.222;2022-08-01T05:39:14;32.60;38.40
23377;DHT22;14353;46.070;13.222;2022-08-01T05:41:41;32.60;38.40
23377;DHT22;14353;46.070;13.222;2022-08-01T05:44:07;32.70;38.40
23377;DHT22;14353;46.070;13.222;2022-08-01T05:46:34;32.60;39.00
23377;DHT22;14353;46.070;13.222;2022-08-01T05:49:01;32.60;38.30
23377;DHT22;14353;46.070;13.222;2022-08-01T05:51:27;32.70;38.40
23377;DHT22;14353;46.070;13.222;2022-08-01T05:53:53;32.70;38.30
23377;DHT22;14353;46.070;13.222;2022-08-01T05:56:20;32.70;38.40
23377;DHT22;14353;46.070;13.222;2022-08-01T05:58:48;32.70;38.30
23377;DHT22;14353;46.070;13.222;2022-08-01T06:01:15;32.70;38.30
23377;DHT22;14353;46.070;13.222;2022-08-01T06:03:41;32.70;38.30
23377;DHT22;14353;46.070;13.222;2022-08-01T06:06:07;32.70;38.20
23377;DHT22;14353;46.070;13.222;2022-08-01T06:08:33;32.70;38.20
23377;DHT22;14353;46.070;13.222;2022-08-01T06:10:59;32.70;38.20
23377;DHT22;14353;46.070;13.222;2022-08-01T06:13:25;32.60;38.20
23377;DHT22;14353;46.070;13.222;2022-08-01T06:15:51;32.60;37.60
23377;DHT22;14353;46.070;13.222;2022-08-01T06:18:17;32.60;37.60
23377;DHT22;14353;46.070;13.222;2022-08-01T06:20:44;32.50;37.50
23377;DHT22;14353;46.070;13.222;2022-08-01T06:23:10;32.50;37.70
23377;DHT22;14353;46.070;13.222;2022-08-01T06:25:37;32.40;37.70
23377;DHT22;14353;46.070;13.222;2022-08-01T06:28:03;32.40;37.80
23377;DHT22;14353;46.070;13.222;2022-08-01T06:30:29;32.40;37.80
23377;DHT22;14353;46.070;13.222;2022-08-01T06:32:55;32.40;37.80
23377;DHT22;14353;46.070;13.222;2022-08-01T06:35:24;32.40;37.80
23377;DHT22;14353;46.070;13.222;2022-08-01T06:37:50;32.30;37.70
23377;DHT22;14353;46.070;13.222;2022-08-01T06:40:16;32.40;37.90
23377;DHT22;14353;46.070;13.222;2022-08-01T06:42:42;32.30;37.80
23377;DHT22;14353;46.070;13.222;2022-08-01T06:45:10;32.30;37.40
23377;DHT22;14353;46.070;13.222;2022-08-01T06:47:37;32.10;38.00
23377;DHT22;14353;46.070;13.222;2022-08-01T06:50:04;32.00;38.50
23377;DHT22;14353;46.070;13.222;2022-08-01T06:52:30;31.90;38.70
23377;DHT22;14353;46.070;13.222;2022-08-01T06:54:56;31.90;38.70
23377;DHT22;14353;46.070;13.222;2022-08-01T06:57:22;31.90;38.70
23377;DHT22;14353;46.070;13.222;2022-08-01T06:59:48;32.00;38.70
23377;DHT22;14353;46.070;13.222;2022-08-01T07:02:14;32.00;38.60
23377;DHT22;14353;46.070;13.222;2022-08-01T07:04:40;32.10;38.60
23377;DHT22;14353;46.070;13.222;2022-08-01T07:07:06;32.10;38.50
23377;DHT22;14353;46.070;13.222;2022-08-01T07:09:32;32.20;38.20
23377;DHT22;14353;46.070;13.222;2022-08-01T07:11:58;32.20;37.90
23377;DHT22;14353;46.070;13.222;2022-08-01T07:14:24;32.00;38.40
23377;DHT22;14353;46.070;13.222;2022-08-01T07:16:51;32.00;38.50
23377;DHT22;14353;46.070;13.222;2022-08-01T07:19:17;31.90;38.70
23377;DHT22;14353;46.070;13.222;2022-08-01T07:21:43;31.80;38.90
23377;DHT22;14353;46.070;13.222;2022-08-01T07:24:12;31.80;39.20
23377;DHT22;14353;46.070;13.222;2022-08-01T07:26:40;31.50;38.90
23377;DHT22;14353;46.070;13.222;2022-08-01T07:29:06;31.20;39.10
23377;DHT22;14353;46.070;13.222;2022-08-01T07:31:35;31.10;39.80
23377;DHT22;14353;46.070;13.222;2022-08-01T07:34:00;31.10;40.10
23377;DHT22;14353;46.070;13.222;2022-08-01T07:36:26;31.10;39.60
23377;DHT22;14353;46.070;13.222;2022-08-01T07:38:52;31.00;39.70
23377;DHT22;14353;46.070;13.222;2022-08-01T07:41:19;30.90;39.30
23377;DHT22;14353;46.070;13.222;2022-08-01T07:43:44;30.60;39.40
23377;DHT22;14353;46.070;13.222;2022-08-01T07:46:10;30.40;39.60
23377;DHT22;14353;46.070;13.222;2022-08-01T07:48:36;30.30;40.00
23377;DHT22;14353;46.070;13.222;2022-08-01T07:51:05;30.30;40.40
23377;DHT22;14353;46.070;13.222;2022-08-01T07:53:31;30.30;40.40
23377;DHT22;14353;46.070;13.222;2022-08-01T07:55:57;30.50;40.80
23377;DHT22;14353;46.070;13.222;2022-08-01T07:58:23;30.60;40.40
23377;DHT22;14353;46.070;13.222;2022-08-01T08:00:49;30.80;39.70
23377;DHT22;14353;46.070;13.222;2022-08-01T08:03:15;30.90;38.20
23377;DHT22;14353;46.070;13.222;2022-08-01T08:05:40;30.90;38.30
23377;DHT22;14353;46.070;13.222;2022-08-01T08:08:08;30.80;38.70
23377;DHT22;14353;46.070;13.222;2022-08-01T08:10:34;30.80;38.80
23377;DHT22;14353;46.070;13.222;2022-08-01T08:13:01;30.90;38.70
23377;DHT22;14353;46.070;13.222;2022-08-01T08:15:28;30.90;38.60
23377;DHT22;14353;46.070;13.222;2022-08-01T08:17:54;30.90;37.80
23377;DHT22;14353;46.070;13.222;2022-08-01T08:20:20;30.90;38.70
23377;DHT22;14353;46.070;13.222;2022-08-01T08:22:50;31.00;37.70
23377;DHT22;14353;46.070;13.222;2022-08-01T08:25:16;31.00;35.80
23377;DHT22;14353;46.070;13.222;2022-08-01T08:27:45;31.00;35.60
23377;DHT22;14353;46.070;13.222;2022-08-01T08:30:12;30.90;34.00
23377;DHT22;14353;46.070;13.222;2022-08-01T08:32:38;30.80;35.00
23377;DHT22;14353;46.070;13.222;2022-08-01T08:35:06;30.70;35.10
23377;DHT22;14353;46.070;13.222;2022-08-01T08:37:34;30.80;35.80
23377;DHT22;14353;46.070;13.222;2022-08-01T08:40:00;30.90;34.50
23377;DHT22;14353;46.070;13.222;2022-08-01T08:42:26;30.90;34.60
23377;DHT22;14353;46.070;13.222;2022-08-01T08:44:52;31.00;34.40
23377;DHT22;14353;46.070;13.222;2022-08-01T08:47:21;31.00;34.00
23377;DHT22;14353;46.070;13.222;2022-08-01T08:49:50;31.10;33.50
23377;DHT22;14353;46.070;13.222;2022-08-01T08:52:19;31.10;33.80
23377;DHT22;14353;46.070;13.222;2022-08-01T08:54:46;31.20;33.60
23377;DHT22;14353;46.070;13.222;2022-08-01T08:57:13;31.30;32.70
23377;DHT22;14353;46.070;13.222;2022-08-01T08:59:39;31.40;32.20
23377;DHT22;14353;46.070;13.222;2022-08-01T09:02:06;31.40;32.90
23377;DHT22;14353;46.070;13.222;2022-08-01T09:04:33;31.40;33.60
23377;DHT22;14353;46.070;13.222;2022-08-01T09:06:59;31.50;34.00
23377;DHT22;14353;46.070;13.222;2022-08-01T09:09:25;31.50;34.30
23377;DHT22;14353;46.070;13.222;2022-08-01T09:11:51;31.40;34.50
23377;DHT22;14353;46.070;13.222;2022-08-01T09:14:18;31.40;34.40
23377;DHT22;14353;46.070;13.222;2022-08-01T09:17:06;31.30;34.70
23377;DHT22;14353;46.070;13.222;2022-08-01T09:19:42;31.40;34.90
23377;DHT22;14353;46.070;13.222;2022-08-01T09:22:16;31.40;35.00
23377;DHT22;14353;46.070;13.222;2022-08-01T09:25:06;31.40;35.20
23377;DHT22;14353;46.070;13.222;2022-08-01T09:27:33;31.50;35.50
23377;DHT22;14353;46.070;13.222;2022-08-01T09:32:53;31.60;35.70
23377;DHT22;14353;46.070;13.222;2022-08-01T09:35:25;31.50;35.70
23377;DHT22;14353;46.070;13.222;2022-08-01T09:37:51;31.50;35.70
23377;DHT22;14353;46.070;13.222;2022-08-01T09:40:17;31.50;35.50
23377;DHT22;14353;46.070;13.222;2022-08-01T09:42:43;31.50;36.00
23377;DHT22;14353;46.070;13.222;2022-08-01T09:45:09;31.60;35.90
23377;DHT22;14353;46.070;13.222;2022-08-01T09:47:39;31.70;35.30
23377;DHT22;14353;46.070;13.222;2022-08-01T09:50:05;31.80;34.80
23377;DHT22;14353;46.070;13.222;2022-08-01T09:52:32;31.80;34.50
23377;DHT22;14353;46.070;13.222;2022-08-01T09:55:00;31.90;34.10
23377;DHT22;14353;46.070;13.222;2022-08-01T09:57:27;31.90;34.40
23377;DHT22;14353;46.070;13.222;2022-08-01T09:59:56;31.90;34.20
23377;DHT22;14353;46.070;13.222;2022-08-01T10:02:33;32.00;34.00
23377;DHT22;14353;46.070;13.222;2022-08-01T10:05:00;32.00;34.30
23377;DHT22;14353;46.070;13.222;2022-08-01T10:07:26;32.10;33.70
23377;DHT22;14353;46.070;13.222;2022-08-01T10:09:52;32.10;33.70
23377;DHT22;14353;46.070;13.222;2022-08-01T10:12:20;32.10;33.60
23377;DHT22;14353;46.070;13.222;2022-08-01T10:14:49;32.20;33.70
23377;DHT22;14353;46.070;13.222;2022-08-01T10:17:18;32.20;34.10
23377;DHT22;14353;46.070;13.222;2022-08-01T10:19:44;32.30;34.20
23377;DHT22;14353;46.070;13.222;2022-08-01T10:22:12;32.30;34.00
23377;DHT22;14353;46.070;13.222;2022-08-01T10:24:46;32.30;33.80
23377;DHT22;14353;46.070;13.222;2022-08-01T10:27:16;32.30;33.90
23377;DHT22;14353;46.070;13.222;2022-08-01T10:29:47;32.40;34.00
23377;DHT22;14353;46.070;13.222;2022-08-01T10:32:13;32.40;34.00
23377;DHT22;14353;46.070;13.222;2022-08-01T10:34:41;32.40;34.00
23377;DHT22;14353;46.070;13.222;2022-08-01T10:37:07;32.40;33.60
23377;DHT22;14353;46.070;13.222;2022-08-01T10:39:34;32.50;33.50
23377;DHT22;14353;46.070;13.222;2022-08-01T10:42:00;32.50;33.60
23377;DHT22;14353;46.070;13.222;2022-08-01T10:44:29;32.50;33.30
23377;DHT22;14353;46.070;13.222;2022-08-01T10:47:07;32.60;33.50
23377;DHT22;14353;46.070;13.222;2022-08-01T10:49:47;32.60;33.40
23377;DHT22;14353;46.070;13.222;2022-08-01T10:52:17;32.60;33.30
23377;DHT22;14353;46.070;13.222;2022-08-01T10:54:44;32.60;33.40
23377;DHT22;14353;46.070;13.222;2022-08-01T10:57:10;32.70;33.40
23377;DHT22;14353;46.070;13.222;2022-08-01T10:59:49;32.70;33.60
23377;DHT22;14353;46.070;13.222;2022-08-01T11:02:30;32.70;33.60
23377;DHT22;14353;46.070;13.222;2022-08-01T11:05:01;32.70;33.70
23377;DHT22;14353;46.070;13.222;2022-08-01T11:07:48;32.70;33.60
23377;DHT22;14353;46.070;13.222;2022-08-01T11:10:34;32.80;33.70
23377;DHT22;14353;46.070;13.222;2022-08-01T11:13:02;32.80;33.50
23377;DHT22;14353;46.070;13.222;2022-08-01T11:15:33;32.80;33.50
23377;DHT22;14353;46.070;13.222;2022-08-01T11:18:28;32.80;33.50
23377;DHT22;14353;46.070;13.222;2022-08-01T11:21:15;32.80;33.50
23377;DHT22;14353;46.070;13.222;2022-08-01T11:23:48;32.90;33.60
23377;DHT22;14353;46.070;13.222;2022-08-01T11:26:15;32.90;33.70
23377;DHT22;14353;46.070;13.222;2022-08-01T11:28:42;32.90;33.60
23377;DHT22;14353;46.070;13.222;2022-08-01T11:41:13;33.00;33.20
23377;DHT22;14353;46.070;13.222;2022-08-01T11:46:59;33.00;33.10
23377;DHT22;14353;46.070;13.222;2022-08-01T11:54:37;33.20;33.00
23377;DHT22;14353;46.070;13.222;2022-08-01T11:59:42;33.20;32.90
23377;DHT22;14353;46.070;13.222;2022-08-01T12:02:33;33.20;32.80
23377;DHT22;14353;46.070;13.222;2022-08-01T12:05:00;33.30;32.90
23377;DHT22;14353;46.070;13.222;2022-08-01T12:07:33;33.30;32.90
23377;DHT22;14353;46.070;13.222;2022-08-01T12:10:03;33.30;32.90
23377;DHT22;14353;46.070;13.222;2022-08-01T12:12:30;33.30;32.90
23377;DHT22;14353;46.070;13.222;2022-08-01T12:15:05;33.40;32.90
23377;DHT22;14353;46.070;13.222;2022-08-01T12:17:36;33.40;32.90
23377;DHT22;14353;46.070;13.222;2022-08-01T12:20:05;33.40;32.90
23377;DHT22;14353;46.070;13.222;2022-08-01T12:22:32;33.40;33.40
23377;DHT22;14353;46.070;13.222;2022-08-01T12:25:08;33.50;32.70
23377;DHT22;14353;46.070;13.222;2022-08-01T12:27:35;33.50;32.80
23377;DHT22;14353;46.070;13.222;2022-08-01T12:30:06;33.50;32.70
23377;DHT22;14353;46.070;13.222;2022-08-01T12:32:34;33.50;32.70
23377;DHT22;14353;46.070;13.222;2022-08-01T12:35:16;33.50;32.70
23377;DHT22;14353;46.070;13.222;2022-08-01T12:40:18;33.60;32.70
23377;DHT22;14353;46.070;13.222;2022-08-01T12:42:48;33.60;32.70
23377;DHT22;14353;46.070;13.222;2022-08-01T12:45:16;33.70;32.70
23377;DHT22;14353;46.070;13.222;2022-08-01T12:47:43;33.70;32.70
23377;DHT22;14353;46.070;13.222;2022-08-01T12:50:22;33.70;32.70
23377;DHT22;14353;46.070;13.222;2022-08-01T12:52:50;33.70;32.70
23377;DHT22;14353;46.070;13.222;2022-08-01T12:55:20;33.80;33.00
23377;DHT22;14353;46.070;13.222;2022-08-01T12:57:48;33.80;32.90
23377;DHT22;14353;46.070;13.222;2022-08-01T13:00:22;33.80;32.90
23377;DHT22;14353;46.070;13.222;2022-08-01T13:05:28;33.90;32.90
23377;DHT22;14353;46.070;13.222;2022-08-01T13:08:10;33.90;32.90
23377;DHT22;14353;46.070;13.222;2022-08-01T13:10:36;33.90;33.10
23377;DHT22;14353;46.070;13.222;2022-08-01T13:13:02;34.00;33.10
23377;DHT22;14353;46.070;13.222;2022-08-01T13:15:33;34.00;33.20
23377;DHT22;14353;46.070;13.222;2022-08-01T13:18:21;34.00;33.10
23377;DHT22;14353;46.070;13.222;2022-08-01T13:20:47;34.00;33.20
23377;DHT22;14353;46.070;13.222;2022-08-01T13:23:18;34.00;33.30
23377;DHT22;14353;46.070;13.222;2022-08-01T13:26:03;34.10;33.30
23377;DHT22;14353;46.070;13.222;2022-08-01T13:28:29;34.10;33.30
23377;DHT22;14353;46.070;13.222;2022-08-01T13:31:02;34.10;33.50
23377;DHT22;14353;46.070;13.222;2022-08-01T13:33:46;34.10;33.50
23377;DHT22;14353;46.070;13.222;2022-08-01T13:36:13;34.20;33.70
23377;DHT22;14353;46.070;13.222;2022-08-01T13:38:40;34.20;33.70
23377;DHT22;14353;46.070;13.222;2022-08-01T13:41:25;34.20;33.70
23377;DHT22;14353;46.070;13.222;2022-08-01T13:43:52;34.20;33.80
23377;DHT22;14353;46.070;13.222;2022-08-01T13:46:18;34.20;34.00
23377;DHT22;14353;46.070;13.222;2022-08-01T13:48:44;34.30;34.00
23377;DHT22;14353;46.070;13.222;2022-08-01T13:51:11;34.30;34.00
23377;DHT22;14353;46.070;13.222;2022-08-01T13:53:36;34.30;34.10
23377;DHT22;14353;46.070;13.222;2022-08-01T13:56:02;34.30;34.10
23377;DHT22;14353;46.070;13.222;2022-08-01T13:58:28;34.30;34.00
23377;DHT22;14353;46.070;13.222;2022-08-01T14:00:55;34.30;34.00
23377;DHT22;14353;46.070;13.222;2022-08-01T14:03:22;34.30;34.00
23377;DHT22;14353;46.070;13.222;2022-08-01T14:05:48;34.40;34.00
23377;DHT22;14353;46.070;13.222;2022-08-01T14:08:14;34.40;34.00
23377;DHT22;14353;46.070;13.222;2022-08-01T14:10:40;34.40;34.00
23377;DHT22;14353;46.070;13.222;2022-08-01T14:13:06;34.40;33.90
23377;DHT22;14353;46.070;13.222;2022-08-01T14:15:33;34.50;34.00
23377;DHT22;14353;46.070;13.222;2022-08-01T14:17:59;34.50;34.10
23377;DHT22;14353;46.070;13.222;2022-08-01T14:20:25;34.50;34.20
23377;DHT22;14353;46.070;13.222;2022-08-01T14:22:51;34.50;34.30
23377;DHT22;14353;46.070;13.222;2022-08-01T14:25:17;34.50;34.30
23377;DHT22;14353;46.070;13.222;2022-08-01T14:27:44;34.60;34.40
23377;DHT22;14353;46.070;13.222;2022-08-01T14:30:10;34.60;34.30
23377;DHT22;14353;46.070;13.222;2022-08-01T14:32:37;34.60;34.30
23377;DHT22;14353;46.070;13.222;2022-08-01T14:35:04;34.60;34.30
23377;DHT22;14353;46.070;13.222;2022-08-01T14:37:31;34.60;34.20
23377;DHT22;14353;46.070;13.222;2022-08-01T14:39:58;34.60;34.20
23377;DHT22;14353;46.070;13.222;2022-08-01T14:42:24;34.70;34.20
23377;DHT22;14353;46.070;13.222;2022-08-01T14:44:51;34.70;34.50
23377;DHT22;14353;46.070;13.222;2022-08-01T14:47:17;34.70;34.20
23377;DHT22;14353;46.070;13.222;2022-08-01T14:49:43;34.70;34.20
23377;DHT22;14353;46.070;13.222;2022-08-01T14:52:08;34.70;34.10
23377;DHT22;14353;46.070;13.222;2022-08-01T14:54:34;34.70;34.20
23377;DHT22;14353;46.070;13.222;2022-08-01T14:57:00;34.70;34.40
23377;DHT22;14353;46.070;13.222;2022-08-01T14:59:26;34.80;34.30
23377;DHT22;14353;46.070;13.222;2022-08-01T15:01:52;34.80;34.40
23377;DHT22;14353;46.070;13.222;2022-08-01T15:04:17;34.80;34.50
23377;DHT22;14353;46.070;13.222;2022-08-01T15:06:44;34.80;34.50
23377;DHT22;14353;46.070;13.222;2022-08-01T15:09:12;34.80;34.40
23377;DHT22;14353;46.070;13.222;2022-08-01T15:11:38;34.80;34.30
23377;DHT22;14353;46.070;13.222;2022-08-01T15:14:04;34.90;34.00
23377;DHT22;14353;46.070;13.222;2022-08-01T15:16:48;34.90;34.00
23377;DHT22;14353;46.070;13.222;2022-08-01T15:19:14;34.90;33.90
23377;DHT22;14353;46.070;13.222;2022-08-01T15:21:40;34.90;33.70
23377;DHT22;14353;46.070;13.222;2022-08-01T15:24:06;34.90;33.50
23377;DHT22;14353;46.070;13.222;2022-08-01T15:26:32;34.90;33.50
23377;DHT22;14353;46.070;13.222;2022-08-01T15:28:58;34.90;33.60
23377;DHT22;14353;46.070;13.222;2022-08-01T15:31:24;34.90;33.50
23377;DHT22;14353;46.070;13.222;2022-08-01T15:33:50;34.90;33.60
23377;DHT22;14353;46.070;13.222;2022-08-01T15:36:16;34.90;33.50
23377;DHT22;14353;46.070;13.222;2022-08-01T15:38:41;34.90;33.40
23377;DHT22;14353;46.070;13.222;2022-08-01T15:41:07;35.00;33.00
23377;DHT22;14353;46.070;13.222;2022-08-01T15:43:33;35.00;33.00
23377;DHT22;14353;46.070;13.222;2022-08-01T15:45:59;34.90;32.90
23377;DHT22;14353;46.070;13.222;2022-08-01T15:48:26;34.90;32.90
23377;DHT22;14353;46.070;13.222;2022-08-01T15:50:52;34.80;32.70
23377;DHT22;14353;46.070;13.222;2022-08-01T15:53:18;34.80;32.70
23377;DHT22;14353;46.070;13.222;2022-08-01T15:55:44;34.80;32.80
23377;DHT22;14353;46.070;13.222;2022-08-01T15:58:10;34.80;32.80
23377;DHT22;14353;46.070;13.222;2022-08-01T16:00:37;34.80;32.70
23377;DHT22;14353;46.070;13.222;2022-08-01T16:03:03;34.80;32.50